createdAt,value
2018-05-02T00:01:32.268Z,12.85
2018-05-02T00:03:59.007Z,12.83
2018-05-02T00:06:25.638Z,12.82
2018-05-02T00:08:52.392Z,12.83
2018-05-02T00:11:19.239Z,12.81
2018-05-02T00:13:46.090Z,12.78
2018-05-02T00:16:12.731Z,12.78
2018-05-02T00:18:39.471Z,12.79
2018-05-02T00:21:06.213Z,12.78
2018-05-02T00:23:32.962Z,12.73
2018-05-02T00:26:00.732Z,12.72
2018-05-02T00:28:27.424Z,12.69
2018-05-02T00:30:54.117Z,12.66
2018-05-02T00:33:20.868Z,12.65
2018-05-02T00:35:47.614Z,12.62
2018-05-02T00:38:14.359Z,12.57
2018-05-02T00:40:41.106Z,12.55
2018-05-02T00:43:07.848Z,12.52
2018-05-02T00:45:34.602Z,12.50
2018-05-02T00:48:01.339Z,12.45
2018-05-02T00:50:28.092Z,12.39
2018-05-02T00:52:54.833Z,12.36
2018-05-02T00:55:21.573Z,12.34
2018-05-02T00:57:48.324Z,12.32
2018-05-02T01:00:14.964Z,12.30
2018-05-02T01:02:41.815Z,12.25
2018-05-02T01:05:08.457Z,12.21
2018-05-02T01:07:35.209Z,12.17
2018-05-02T01:10:01.886Z,12.15
2018-05-02T01:12:28.590Z,12.13
2018-05-02T01:14:55.338Z,12.11
2018-05-02T01:17:22.077Z,12.13
2018-05-02T01:19:48.821Z,12.15
2018-05-02T01:22:15.571Z,12.16
2018-05-02T01:24:42.323Z,12.18
2018-05-02T01:27:09.060Z,12.20
2018-05-02T01:29:35.815Z,12.20
2018-05-02T01:32:02.554Z,12.20
2018-05-02T01:34:29.294Z,12.19
2018-05-02T01:36:56.046Z,12.18
2018-05-02T01:39:22.790Z,12.14
2018-05-02T01:41:49.539Z,12.11
2018-05-02T01:44:16.284Z,12.07
2018-05-02T01:46:42.972Z,12.05
2018-05-02T01:49:21.751Z,12.06
2018-05-02T01:51:48.493Z,12.04
2018-05-02T01:54:15.239Z,11.99
2018-05-02T01:56:41.996Z,11.95
2018-05-02T01:59:08.733Z,11.93
2018-05-02T02:01:35.473Z,11.90
2018-05-02T02:04:02.217Z,11.85
2018-05-02T02:06:28.967Z,11.82
2018-05-02T02:08:55.706Z,11.78
2018-05-02T02:11:22.458Z,11.72
2018-05-02T02:13:49.209Z,11.67
2018-05-02T02:16:15.951Z,11.61
2018-05-02T02:18:42.596Z,11.56
2018-05-02T02:21:09.339Z,11.53
2018-05-02T02:23:36.082Z,11.46
2018-05-02T02:26:02.822Z,11.40
2018-05-02T02:28:29.672Z,11.32
2018-05-02T02:30:56.424Z,11.27
2018-05-02T02:33:23.165Z,11.23
2018-05-02T02:35:49.908Z,11.21
2018-05-02T02:38:16.657Z,11.19
2018-05-02T02:40:44.430Z,-144.16
2018-05-02T02:43:11.167Z,-144.16
2018-05-02T02:45:37.918Z,-144.16
2018-05-02T02:48:04.674Z,-144.16
2018-05-02T02:50:31.512Z,-144.16
2018-05-02T02:52:58.249Z,-144.16
2018-05-02T02:55:25.008Z,-144.16
2018-05-02T02:57:51.671Z,-144.16
2018-05-02T03:00:18.392Z,-144.16
2018-05-02T03:02:45.145Z,-144.16
2018-05-02T03:05:11.887Z,-144.16
2018-05-02T03:07:38.629Z,-144.16
2018-05-02T03:10:05.480Z,-144.16
2018-05-02T03:12:32.157Z,-144.16
2018-05-02T03:14:58.857Z,-144.16
2018-05-02T03:17:25.608Z,-144.16
2018-05-02T03:19:52.460Z,-144.16
2018-05-02T03:22:19.202Z,-144.16
2018-05-02T03:24:45.951Z,-144.16
2018-05-02T03:27:12.791Z,-144.16
2018-05-02T03:29:39.473Z,-144.16
2018-05-02T03:32:06.185Z,-144.16
2018-05-02T03:34:32.935Z,-144.16
2018-05-02T03:36:59.676Z,-144.16
2018-05-02T03:39:26.426Z,-144.16
2018-05-02T03:41:53.165Z,-144.16
2018-05-02T03:44:19.905Z,-144.16
2018-05-02T03:46:46.561Z,-144.16
2018-05-02T03:49:13.301Z,-144.16
2018-05-02T03:51:40.049Z,-144.16
2018-05-02T03:54:06.693Z,-144.16
2018-05-02T03:56:33.453Z,-144.16
2018-05-02T03:59:00.197Z,-144.16
2018-05-02T04:01:39.183Z,-144.16
2018-05-02T04:04:18.025Z,-144.16
2018-05-02T04:09:48.257Z,11.09
2018-05-02T04:12:19.917Z,11.12
2018-05-02T04:14:46.557Z,11.14
2018-05-02T04:17:13.297Z,11.17
2018-05-02T04:19:41.068Z,11.22
2018-05-02T04:22:07.839Z,11.26
2018-05-02T04:24:34.664Z,11.32
2018-05-02T04:27:01.410Z,11.34
2018-05-02T04:29:28.150Z,11.35
2018-05-02T04:31:54.907Z,11.40
2018-05-02T04:34:21.643Z,11.44
2018-05-02T04:36:48.397Z,11.49
2018-05-02T04:39:16.165Z,11.50
2018-05-02T04:41:42.947Z,11.53
2018-05-02T04:44:09.655Z,11.57
2018-05-02T04:46:36.397Z,11.63
2018-05-02T04:49:03.255Z,11.69
2018-05-02T04:51:29.992Z,11.77
2018-05-02T04:53:56.745Z,11.85
2018-05-02T04:56:23.593Z,11.94
2018-05-02T04:58:50.335Z,12.04
2018-05-02T05:01:17.072Z,12.15
2018-05-02T05:03:43.831Z,12.25
2018-05-02T05:06:10.569Z,12.32
2018-05-02T05:08:37.214Z,12.42
2018-05-02T05:11:03.958Z,12.51
2018-05-02T05:13:30.699Z,12.59
2018-05-02T05:15:57.548Z,12.67
2018-05-02T05:18:24.310Z,12.72
2018-05-02T05:20:50.940Z,12.80
2018-05-02T05:23:18.446Z,12.87
2018-05-02T05:25:45.247Z,12.93
2018-05-02T05:28:11.999Z,13.02
2018-05-02T05:30:38.741Z,13.10
2018-05-02T05:33:05.495Z,13.17
2018-05-02T05:35:32.124Z,13.27
2018-05-02T05:37:58.888Z,13.36
2018-05-02T05:40:25.714Z,13.47
2018-05-02T05:42:52.466Z,13.57
2018-05-02T05:45:19.206Z,13.66
2018-05-02T05:47:45.959Z,13.74
2018-05-02T05:50:12.706Z,13.80
2018-05-02T05:52:39.349Z,13.87
2018-05-02T05:55:06.199Z,13.94
2018-05-02T05:57:32.940Z,14.00
2018-05-02T05:59:59.680Z,14.05
2018-05-02T06:02:26.435Z,14.03
2018-05-02T06:04:53.181Z,-144.16
2018-05-02T06:07:19.925Z,-144.16
2018-05-02T06:09:46.664Z,-144.16
2018-05-02T06:12:13.416Z,-144.16
2018-05-02T06:14:40.265Z,-144.16
2018-05-02T06:17:07.105Z,-144.16
2018-05-02T06:19:33.858Z,-144.16
2018-05-02T06:22:00.596Z,-144.16
2018-05-02T06:24:27.449Z,-144.16
2018-05-02T06:26:55.218Z,-144.16
2018-05-02T06:29:21.863Z,-144.16
2018-05-02T06:31:48.533Z,-144.16
2018-05-02T06:34:15.255Z,-144.16
2018-05-02T06:36:43.333Z,-144.16
2018-05-02T06:39:10.176Z,-144.16
2018-05-02T06:41:36.917Z,-144.16
2018-05-02T06:44:03.682Z,-144.16
2018-05-02T06:46:30.508Z,-144.16
2018-05-02T06:48:57.262Z,-144.16
2018-05-02T06:51:23.896Z,-144.16
2018-05-02T06:53:50.753Z,-144.16
2018-05-02T06:56:17.507Z,-144.16
2018-05-02T06:58:44.340Z,-144.16
2018-05-02T07:01:11.089Z,-144.16
2018-05-02T07:03:37.734Z,-144.16
2018-05-02T07:06:04.476Z,-144.16
2018-05-02T07:08:31.321Z,-144.16
2018-05-02T07:10:58.063Z,-144.16
2018-05-02T07:13:24.797Z,-144.16
2018-05-02T07:15:51.559Z,-144.16
2018-05-02T07:18:18.204Z,-144.16
2018-05-02T07:20:44.950Z,-144.16
2018-05-02T07:23:11.797Z,-144.16
2018-05-02T07:25:38.549Z,-144.16
2018-05-02T07:28:05.291Z,-144.16
2018-05-02T07:30:32.341Z,-144.16
2018-05-02T07:32:59.105Z,-144.16
2018-05-02T07:35:25.950Z,-144.16
2018-05-02T07:37:52.684Z,-144.16
2018-05-02T07:40:19.423Z,-144.16
2018-05-02T07:42:46.176Z,-144.16
2018-05-02T07:45:13.027Z,-144.16
2018-05-02T07:47:39.765Z,-144.16
2018-05-02T07:50:06.406Z,-144.16
2018-05-02T07:52:33.115Z,-144.16
2018-05-02T07:54:59.796Z,-144.16
2018-05-02T07:57:26.543Z,-144.16
2018-05-02T07:59:53.289Z,-144.16
2018-05-02T08:02:20.033Z,-144.16
2018-05-02T08:04:46.784Z,-144.16
2018-05-02T08:07:14.653Z,-144.16
2018-05-02T08:09:41.402Z,-144.16
2018-05-02T08:12:08.245Z,-144.16
2018-05-02T08:14:35.099Z,-144.16
2018-05-02T08:17:01.936Z,-144.16
2018-05-02T08:19:28.688Z,-144.16
2018-05-02T08:21:55.427Z,-144.16
2018-05-02T08:24:22.177Z,-144.16
2018-05-02T08:26:48.928Z,-144.16
2018-05-02T08:29:15.667Z,-144.16
2018-05-02T08:31:42.311Z,-144.16
2018-05-02T08:34:09.050Z,-144.16
2018-05-02T08:36:36.419Z,-144.16
2018-05-02T08:39:03.264Z,-144.16
2018-05-02T08:41:31.041Z,-144.16
2018-05-02T08:43:57.883Z,-144.16
2018-05-02T08:46:39.463Z,-144.16
2018-05-02T08:49:06.214Z,-144.16
2018-05-02T08:51:32.957Z,-144.16
2018-05-02T08:53:59.727Z,-144.16
2018-05-02T08:56:26.551Z,-144.16
2018-05-02T08:58:53.285Z,-144.16
2018-05-02T09:01:20.040Z,-144.16
2018-05-02T09:03:46.923Z,-144.16
2018-05-02T09:06:13.633Z,-144.16
2018-05-02T09:08:40.380Z,-144.16
2018-05-02T09:11:07.219Z,-144.16
2018-05-02T09:13:33.974Z,-144.16
2018-05-02T09:16:00.712Z,-144.16
2018-05-02T09:18:27.564Z,-144.16
2018-05-02T09:20:54.305Z,-144.16
2018-05-02T09:23:21.159Z,-144.16
2018-05-02T09:25:48.053Z,-144.16
2018-05-02T09:28:14.750Z,-144.16
2018-05-02T09:30:41.497Z,-144.16
2018-05-02T09:33:08.239Z,-144.16
2018-05-02T09:35:34.907Z,-144.16
2018-05-02T09:38:01.627Z,-144.16
2018-05-02T09:40:28.481Z,-144.16
2018-05-02T09:42:55.226Z,-144.16
2018-05-02T09:45:21.972Z,-144.16
2018-05-02T09:47:48.815Z,-144.16
2018-05-02T09:50:15.573Z,-144.16
2018-05-02T09:52:42.303Z,-144.16
2018-05-02T09:55:09.054Z,-144.16
2018-05-02T09:57:35.905Z,-144.16
2018-05-02T10:00:02.857Z,-144.16
2018-05-02T10:02:29.609Z,-144.16
2018-05-02T10:04:56.340Z,-144.16
2018-05-02T10:07:23.037Z,-144.16
2018-05-02T10:09:49.728Z,-144.16
2018-05-02T10:12:16.479Z,-144.16
2018-05-02T10:14:43.174Z,-144.16
2018-05-02T10:17:09.975Z,-144.16
2018-05-02T10:19:36.712Z,-144.16
2018-05-02T10:22:03.451Z,-144.16
2018-05-02T10:24:30.205Z,-144.16
2018-05-02T10:26:56.942Z,-144.16
2018-05-02T10:29:23.697Z,-144.16
2018-05-02T10:31:50.433Z,-144.16
2018-05-02T10:34:17.088Z,-144.16
2018-05-02T10:36:43.728Z,-144.16
2018-05-02T10:39:10.481Z,-144.16
2018-05-02T10:41:37.164Z,-144.16
2018-05-02T10:44:03.858Z,-144.16
2018-05-02T10:46:30.509Z,-144.16
2018-05-02T10:48:57.153Z,-144.16
2018-05-02T10:51:23.892Z,-144.16
2018-05-02T10:53:50.742Z,-144.16
2018-05-02T10:56:17.486Z,-144.16
2018-05-02T10:58:44.241Z,-144.16
2018-05-02T11:01:10.988Z,-144.16
2018-05-02T11:03:37.724Z,-144.16
2018-05-02T11:06:04.296Z,-144.16
2018-05-02T11:08:31.010Z,-144.16
2018-05-02T11:10:57.760Z,-144.16
2018-05-02T11:13:24.403Z,-144.16
2018-05-02T11:15:51.138Z,-144.16
2018-05-02T11:18:18.718Z,-144.16
2018-05-02T11:20:45.454Z,-144.16
2018-05-02T11:23:13.010Z,-144.16
2018-05-02T11:25:39.663Z,-144.16
2018-05-02T11:28:06.405Z,-144.16
2018-05-02T11:30:33.265Z,-144.16
2018-05-02T11:33:00.009Z,-144.16
2018-05-02T11:35:26.748Z,-144.16
2018-05-02T11:37:53.489Z,-144.16
2018-05-02T11:40:20.237Z,-144.16
2018-05-02T11:42:46.977Z,-144.16
2018-05-02T11:45:13.733Z,-144.16
2018-05-02T11:47:40.411Z,-144.16
2018-05-02T11:50:07.124Z,-144.16
2018-05-02T11:52:33.964Z,-144.16
2018-05-02T11:55:00.654Z,-144.16
2018-05-02T11:57:27.363Z,-144.16
2018-05-02T11:59:54.097Z,-144.16
2018-05-02T12:02:21.762Z,-144.16
2018-05-02T12:04:48.519Z,-144.16
2018-05-02T12:07:15.357Z,-144.16
2018-05-02T12:09:42.108Z,-144.16
2018-05-02T12:12:08.848Z,-144.16
2018-05-02T12:14:35.698Z,-144.16
2018-05-02T12:17:02.452Z,-144.16
2018-05-02T12:19:29.092Z,-144.16
2018-05-02T12:21:56.028Z,-144.16
2018-05-02T12:24:22.693Z,-144.16
2018-05-02T12:26:49.424Z,-144.16
2018-05-02T12:29:16.278Z,-144.16
2018-05-02T12:31:43.015Z,-144.16
2018-05-02T12:34:09.765Z,-144.16
2018-05-02T12:36:36.514Z,-144.16
2018-05-02T12:39:03.359Z,-144.16
2018-05-02T12:41:30.205Z,-144.16
2018-05-02T12:43:57.050Z,-144.16
2018-05-02T12:46:23.799Z,-144.16
2018-05-02T12:48:50.552Z,-144.16
2018-05-02T12:51:17.390Z,-144.16
2018-05-02T12:53:44.141Z,-144.16
2018-05-02T12:56:10.932Z,-144.16
2018-05-02T12:58:37.631Z,-144.16
2018-05-02T13:01:05.394Z,-144.16
2018-05-02T13:03:32.144Z,-144.16
2018-05-02T13:05:58.790Z,-144.16
2018-05-02T13:08:25.536Z,-144.16
2018-05-02T13:10:52.379Z,-144.16
2018-05-02T13:13:19.226Z,-144.16
2018-05-02T13:15:46.076Z,-144.16
2018-05-02T13:18:12.830Z,-144.16
2018-05-02T13:20:39.568Z,-144.16
2018-05-02T13:23:06.210Z,-144.16
2018-05-02T13:25:32.949Z,-144.16
2018-05-02T13:27:59.802Z,-144.16
2018-05-02T13:30:26.560Z,-144.16
2018-05-02T13:32:53.192Z,-144.16
2018-05-02T13:35:19.936Z,-144.16
2018-05-02T13:37:46.686Z,-144.16
2018-05-02T13:40:13.426Z,-144.16
2018-05-02T13:42:40.275Z,-144.16
2018-05-02T13:45:07.050Z,-144.16
2018-05-02T13:47:33.898Z,-144.16
2018-05-02T13:50:00.718Z,-144.16
2018-05-02T13:52:28.591Z,-144.16
2018-05-02T13:54:55.229Z,-144.16
2018-05-02T13:57:22.082Z,-144.16
2018-05-02T13:59:48.938Z,-144.16
2018-05-02T14:02:15.675Z,-144.16
2018-05-02T14:04:42.453Z,-144.16
2018-05-02T14:07:09.167Z,-144.16
2018-05-02T14:09:35.932Z,-144.16
2018-05-02T14:12:02.755Z,-144.16
2018-05-02T14:14:29.505Z,-144.16
2018-05-02T14:16:56.251Z,-144.16
2018-05-02T14:19:23.100Z,-144.16
2018-05-02T14:21:49.739Z,-144.16
2018-05-02T14:24:16.477Z,-144.16
2018-05-02T14:26:43.232Z,-144.16
2018-05-02T14:29:09.971Z,-144.16
2018-05-02T14:31:36.738Z,-144.16
2018-05-02T14:34:03.682Z,-144.16
2018-05-02T14:36:30.417Z,-144.16
2018-05-02T14:38:58.184Z,-144.16
2018-05-02T14:41:26.057Z,-144.16
2018-05-02T14:43:52.905Z,-144.16
2018-05-02T14:46:19.647Z,-144.16
2018-05-02T14:48:46.400Z,-144.16
2018-05-02T14:51:13.155Z,-144.16
2018-05-02T14:53:39.891Z,-144.16
2018-05-02T14:56:06.739Z,-144.16
2018-05-02T14:58:33.479Z,-144.16
2018-05-02T15:01:00.235Z,-144.16
2018-05-02T15:03:26.972Z,-144.16
2018-05-02T15:05:53.716Z,-144.16
2018-05-02T15:08:21.542Z,-144.16
2018-05-02T15:10:48.443Z,-144.16
2018-05-02T15:13:15.187Z,-144.16
2018-05-02T15:15:41.929Z,-144.16
2018-05-02T15:18:08.778Z,-144.16
2018-05-02T15:20:35.521Z,-144.16
2018-05-02T15:23:02.184Z,-144.16
2018-05-02T15:25:28.911Z,-144.16
2018-05-02T15:27:55.661Z,-144.16
2018-05-02T15:30:22.401Z,-144.16
2018-05-02T15:32:49.254Z,-144.16
2018-05-02T15:35:15.996Z,-144.16
2018-05-02T15:37:42.684Z,-144.16
2018-05-02T15:40:09.582Z,-144.16
2018-05-02T15:44:17.548Z,30.51
2018-05-02T15:46:44.296Z,30.63
2018-05-02T15:49:11.030Z,30.66
2018-05-02T15:51:37.679Z,30.60
2018-05-02T15:54:04.369Z,30.63
2018-05-02T15:56:31.582Z,30.50
2018-05-02T15:58:59.799Z,30.29
2018-05-02T16:01:26.602Z,30.10
2018-05-02T16:03:53.303Z,29.82
2018-05-02T16:06:19.992Z,29.34
2018-05-02T16:08:47.042Z,29.11
2018-05-02T16:11:13.797Z,28.74
2018-05-02T16:13:40.634Z,28.61
2018-05-02T16:16:08.409Z,28.54
2018-05-02T16:18:35.148Z,28.55
2018-05-02T16:21:01.897Z,28.55
2018-05-02T16:23:28.641Z,28.62
2018-05-02T16:25:55.461Z,28.61
2018-05-02T16:28:22.131Z,28.49
2018-05-02T16:30:48.883Z,28.41
2018-05-02T16:33:15.571Z,28.42
2018-05-02T16:35:42.370Z,28.45
2018-05-02T16:38:09.114Z,28.35
2018-05-02T16:40:36.065Z,28.25
2018-05-02T16:43:02.914Z,28.07
2018-05-02T16:45:29.669Z,27.80
2018-05-02T16:47:56.412Z,27.63
2018-05-02T16:50:23.150Z,27.58
2018-05-02T16:52:49.898Z,27.49
2018-05-02T16:55:16.637Z,27.24
2018-05-02T16:57:43.358Z,27.09
2018-05-02T17:00:10.230Z,26.98
2018-05-02T17:02:37.080Z,26.77
2018-05-02T17:07:45.205Z,26.15
2018-05-02T17:10:11.955Z,25.90
2018-05-02T17:12:39.758Z,25.63
2018-05-02T17:15:06.468Z,25.40
2018-05-02T17:17:33.215Z,25.16
2018-05-02T17:19:59.959Z,24.94
2018-05-02T17:22:27.741Z,24.77
2018-05-02T17:24:54.622Z,24.60
2018-05-02T17:27:21.532Z,24.39
2018-05-02T17:29:49.291Z,24.18
2018-05-02T17:32:16.042Z,23.95
2018-05-02T17:34:42.897Z,23.71
2018-05-02T17:37:10.762Z,23.46
2018-05-02T17:39:37.502Z,23.28
2018-05-02T17:42:04.457Z,23.08
2018-05-02T17:44:31.304Z,22.87
2018-05-02T17:46:58.048Z,22.68
2018-05-02T17:49:24.797Z,22.47
2018-05-02T17:51:51.539Z,22.33
2018-05-02T17:54:18.299Z,22.20
2018-05-02T17:56:45.028Z,22.05
2018-05-02T17:59:11.885Z,21.84
2018-05-02T18:01:38.522Z,21.67
2018-05-02T18:04:05.272Z,21.51
2018-05-02T18:06:32.114Z,21.38
2018-05-02T18:08:58.863Z,21.22
2018-05-02T18:11:25.603Z,21.08
2018-05-02T18:14:01.368Z,20.96
2018-05-02T18:16:28.104Z,20.82
2018-05-02T18:18:54.845Z,20.73
2018-05-02T18:21:21.698Z,20.60
2018-05-02T18:23:48.447Z,20.49
2018-05-02T18:26:15.191Z,20.40
2018-05-02T18:28:42.038Z,20.33
2018-05-02T18:31:09.805Z,20.26
2018-05-02T18:33:36.551Z,20.16
2018-05-02T18:36:03.406Z,20.10
2018-05-02T18:38:30.142Z,20.04
2018-05-02T18:40:56.893Z,20.00
2018-05-02T18:43:24.865Z,19.97
2018-05-02T18:45:51.612Z,19.93
2018-05-02T18:48:18.356Z,19.88
2018-05-02T18:50:45.062Z,19.80
2018-05-02T18:53:11.836Z,19.73
2018-05-02T18:55:38.515Z,19.65
2018-05-02T18:58:05.232Z,19.57
2018-05-02T19:00:31.980Z,19.48
2018-05-02T19:02:58.623Z,19.38
2018-05-02T19:05:25.573Z,19.32
2018-05-02T19:07:52.328Z,19.25
2018-05-02T19:10:19.067Z,19.17
2018-05-02T19:12:45.814Z,19.04
2018-05-02T19:15:12.456Z,18.91
2018-05-02T19:17:45.337Z,18.83
2018-05-02T19:20:18.017Z,18.79
2018-05-02T19:22:44.661Z,18.74
2018-05-02T19:25:17.551Z,18.71
2018-05-02T19:27:44.192Z,18.68
2018-05-02T19:30:10.943Z,18.66
2018-05-02T19:32:43.521Z,18.64
2018-05-02T19:35:10.271Z,18.59
2018-05-02T19:37:37.012Z,18.55
2018-05-02T19:40:09.697Z,18.52
2018-05-02T19:42:43.747Z,18.47
2018-05-02T19:45:10.592Z,18.43
2018-05-02T19:47:37.294Z,18.44
2018-05-02T19:50:04.865Z,18.42
2018-05-02T19:55:25.668Z,18.41
2018-05-02T19:57:52.522Z,18.43
2018-05-02T20:00:25.511Z,18.45
2018-05-02T20:02:58.391Z,18.45
2018-05-02T20:05:25.144Z,18.47
2018-05-02T20:07:51.883Z,18.46
2018-05-02T20:10:24.507Z,18.45
2018-05-02T20:12:57.284Z,18.41
2018-05-02T20:15:24.094Z,18.37
2018-05-02T20:17:50.838Z,18.37
2018-05-02T20:20:17.493Z,18.34
2018-05-02T20:22:44.327Z,18.34
2018-05-02T20:25:11.120Z,18.31
2018-05-02T20:27:37.818Z,18.27
2018-05-02T20:30:04.779Z,18.23
2018-05-02T20:32:31.523Z,18.19
2018-05-02T20:34:58.261Z,18.16
2018-05-02T20:37:26.033Z,18.13
2018-05-02T20:39:52.886Z,18.09
2018-05-02T20:42:19.623Z,18.04
2018-05-02T20:44:46.317Z,18.03
2018-05-02T20:47:13.014Z,17.96
2018-05-02T20:49:39.771Z,17.92
2018-05-02T20:52:06.509Z,17.87
2018-05-02T20:54:33.248Z,17.84
2018-05-02T20:56:59.999Z,17.79
2018-05-02T20:59:26.747Z,17.75
2018-05-02T21:01:53.491Z,17.71
2018-05-02T21:04:20.231Z,17.69
2018-05-02T21:06:46.992Z,17.69
2018-05-02T21:09:13.722Z,17.68
2018-05-02T21:11:40.476Z,17.67
2018-05-02T21:14:07.212Z,17.66
2018-05-02T21:16:33.865Z,17.62
2018-05-02T21:19:00.607Z,17.61
2018-05-02T21:21:27.446Z,17.58
2018-05-02T21:23:54.099Z,17.56
2018-05-02T21:26:20.839Z,17.54
2018-05-02T21:28:47.588Z,17.52
2018-05-02T21:31:14.329Z,17.48
2018-05-02T21:33:41.024Z,17.43
2018-05-02T21:36:07.822Z,17.40
2018-05-02T21:38:34.465Z,17.34
2018-05-02T21:41:01.214Z,17.30
2018-05-02T21:43:27.851Z,17.25
2018-05-02T21:45:54.496Z,17.20
2018-05-02T21:48:21.248Z,17.16
2018-05-02T21:50:47.985Z,17.13
2018-05-02T21:53:14.632Z,17.08
2018-05-02T21:55:41.478Z,17.06
2018-05-02T21:58:08.129Z,17.04
2018-05-02T22:00:34.870Z,16.99
2018-05-02T22:03:01.624Z,16.97
2018-05-02T22:05:28.361Z,16.95
2018-05-02T22:07:55.071Z,16.93
2018-05-02T22:10:21.755Z,16.92
2018-05-02T22:12:48.590Z,16.91
2018-05-02T22:15:15.246Z,16.87
2018-05-02T22:17:41.886Z,16.83
2018-05-02T22:20:08.628Z,16.83
2018-05-02T22:22:35.380Z,16.81
2018-05-02T22:25:02.117Z,16.78
2018-05-02T22:27:28.866Z,16.74
2018-05-02T22:29:55.606Z,16.73
2018-05-02T22:32:22.360Z,16.68
2018-05-02T22:34:49.098Z,16.64
2018-05-02T22:37:15.855Z,16.59
2018-05-02T22:39:42.593Z,16.54
2018-05-02T22:42:09.348Z,16.50
2018-05-02T22:44:35.983Z,16.47
2018-05-02T22:47:02.726Z,16.43
2018-05-02T22:49:29.475Z,16.37
2018-05-02T22:51:56.227Z,16.35
2018-05-02T22:54:22.969Z,16.31
2018-05-02T22:56:49.809Z,16.26
2018-05-02T22:59:16.585Z,16.20
2018-05-02T23:01:43.206Z,16.13
2018-05-02T23:04:09.950Z,16.03
2018-05-02T23:06:36.690Z,15.96
2018-05-02T23:09:03.542Z,15.86
2018-05-02T23:11:30.281Z,15.81
2018-05-02T23:13:57.034Z,15.74
2018-05-02T23:16:24.802Z,15.77
2018-05-02T23:18:51.545Z,15.77
2018-05-02T23:21:18.287Z,15.76
2018-05-02T23:23:45.037Z,15.74
2018-05-02T23:26:11.775Z,15.73
2018-05-02T23:28:39.445Z,15.70
2018-05-02T23:31:06.086Z,15.67
2018-05-02T23:33:32.939Z,15.65
2018-05-02T23:35:59.687Z,15.66
2018-05-02T23:38:26.436Z,15.65
2018-05-02T23:40:53.279Z,15.62
2018-05-02T23:43:20.021Z,15.57
2018-05-02T23:45:46.774Z,15.49
2018-05-02T23:48:13.475Z,15.44
2018-05-02T23:50:40.096Z,15.41
2018-05-02T23:53:06.653Z,15.35
2018-05-02T23:55:33.337Z,15.31
2018-05-02T23:58:00.087Z,15.27
